sensor_id;sensor_type;location;lat;lon;timestamp;temperature;humidity
16974;DHT22;8603;46.944;7.412;2022-08-18T00:01:49;16.40;99.90
16974;DHT22;8603;46.944;7.412;2022-08-18T00:04:17;16.40;99.90
16974;DHT22;8603;46.944;7.412;2022-08-18T00:06:44;16.40;99.90
16974;DHT22;8603;46.944;7.412;2022-08-18T00:09:11;16.30;99.90
16974;DHT22;8603;46.944;7.412;2022-08-18T00:11:40;16.30;99.90
16974;DHT22;8603;46.944;7.412;2022-08-18T00:14:07;16.30;99.90
16974;DHT22;8603;46.944;7.412;2022-08-18T00:16:37;16.30;99.90
16974;DHT22;8603;46.944;7.412;2022-08-18T00:19:02;16.20;99.90
16974;DHT22;8603;46.944;7.412;2022-08-18T00:21:28;16.20;99.90
16974;DHT22;8603;46.944;7.412;2022-08-18T00:23:55;16.20;99.90
16974;DHT22;8603;46.944;7.412;2022-08-18T00:26:20;16.30;99.90
16974;DHT22;8603;46.944;7.412;2022-08-18T00:28:46;16.20;99.90
16974;DHT22;8603;46.944;7.412;2022-08-18T00:31:12;16.20;99.90
16974;DHT22;8603;46.944;7.412;2022-08-18T00:33:39;16.30;99.90
16974;DHT22;8603;46.944;7.412;2022-08-18T00:36:09;16.30;99.90
16974;DHT22;8603;46.944;7.412;2022-08-18T00:38:40;16.30;99.90
16974;DHT22;8603;46.944;7.412;2022-08-18T00:41:06;16.30;99.90
16974;DHT22;8603;46.944;7.412;2022-08-18T00:43:43;16.30;99.90
16974;DHT22;8603;46.944;7.412;2022-08-18T00:46:14;16.30;99.90
16974;DHT22;8603;46.944;7.412;2022-08-18T00:48:41;16.30;99.90
16974;DHT22;8603;46.944;7.412;2022-08-18T00:51:32;16.30;99.90
16974;DHT22;8603;46.944;7.412;2022-08-18T00:54:11;16.40;99.90
16974;DHT22;8603;46.944;7.412;2022-08-18T00:56:47;16.40;99.90
16974;DHT22;8603;46.944;7.412;2022-08-18T01:02:08;16.40;99.90
16974;DHT22;8603;46.944;7.412;2022-08-18T01:04:59;16.40;99.90
16974;DHT22;8603;46.944;7.412;2022-08-18T01:07:41;16.40;99.90
16974;DHT22;8603;46.944;7.412;2022-08-18T01:10:28;16.40;99.90
16974;DHT22;8603;46.944;7.412;2022-08-18T01:13:03;16.40;99.90
16974;DHT22;8603;46.944;7.412;2022-08-18T01:15:40;16.40;99.90
16974;DHT22;8603;46.944;7.412;2022-08-18T01:18:13;16.40;99.90
16974;DHT22;8603;46.944;7.412;2022-08-18T01:24:15;16.40;99.90
16974;DHT22;8603;46.944;7.412;2022-08-18T01:26:48;16.50;99.90
16974;DHT22;8603;46.944;7.412;2022-08-18T01:29:19;16.50;99.90
16974;DHT22;8603;46.944;7.412;2022-08-18T01:31:49;16.50;99.90
16974;DHT22;8603;46.944;7.412;2022-08-18T01:34:30;16.50;99.90
16974;DHT22;8603;46.944;7.412;2022-08-18T01:37:07;16.50;99.90
16974;DHT22;8603;46.944;7.412;2022-08-18T01:39:42;16.50;99.90
16974;DHT22;8603;46.944;7.412;2022-08-18T01:42:13;16.40;99.90
16974;DHT22;8603;46.944;7.412;2022-08-18T01:44:43;16.40;99.90
16974;DHT22;8603;46.944;7.412;2022-08-18T01:47:13;16.40;99.90
16974;DHT22;8603;46.944;7.412;2022-08-18T01:49:56;16.40;99.90
16974;DHT22;8603;46.944;7.412;2022-08-18T01:52:26;16.40;99.90
16974;DHT22;8603;46.944;7.412;2022-08-18T01:54:54;16.40;99.90
16974;DHT22;8603;46.944;7.412;2022-08-18T01:57:27;16.40;99.90
16974;DHT22;8603;46.944;7.412;2022-08-18T01:59:55;16.40;99.90
16974;DHT22;8603;46.944;7.412;2022-08-18T02:02:32;16.40;99.90
16974;DHT22;8603;46.944;7.412;2022-08-18T02:05:06;16.40;99.90
16974;DHT22;8603;46.944;7.412;2022-08-18T02:07:32;16.40;99.90
16974;DHT22;8603;46.944;7.412;2022-08-18T02:09:58;16.40;99.90
16974;DHT22;8603;46.944;7.412;2022-08-18T02:12:26;16.40;99.90
16974;DHT22;8603;46.944;7.412;2022-08-18T02:14:55;16.30;99.90
16974;DHT22;8603;46.944;7.412;2022-08-18T02:17:50;16.30;99.90
16974;DHT22;8603;46.944;7.412;2022-08-18T02:20:19;16.30;99.90
16974;DHT22;8603;46.944;7.412;2022-08-18T02:22:48;16.30;99.90
16974;DHT22;8603;46.944;7.412;2022-08-18T02:25:17;16.30;99.90
16974;DHT22;8603;46.944;7.412;2022-08-18T02:27:46;16.40;99.90
16974;DHT22;8603;46.944;7.412;2022-08-18T02:30:16;16.30;99.90
16974;DHT22;8603;46.944;7.412;2022-08-18T02:32:42;16.30;99.90
16974;DHT22;8603;46.944;7.412;2022-08-18T02:35:13;16.30;99.90
16974;DHT22;8603;46.944;7.412;2022-08-18T02:37:49;16.30;99.90
16974;DHT22;8603;46.944;7.412;2022-08-18T02:40:21;16.30;99.90
16974;DHT22;8603;46.944;7.412;2022-08-18T02:42:53;16.30;99.90
16974;DHT22;8603;46.944;7.412;2022-08-18T02:45:22;16.30;99.90
16974;DHT22;8603;46.944;7.412;2022-08-18T02:47:55;16.30;99.90
16974;DHT22;8603;46.944;7.412;2022-08-18T02:50:21;16.20;99.90
16974;DHT22;8603;46.944;7.412;2022-08-18T02:52:51;16.20;99.90
16974;DHT22;8603;46.944;7.412;2022-08-18T02:55:16;16.10;99.90
16974;DHT22;8603;46.944;7.412;2022-08-18T02:57:44;16.20;99.90
16974;DHT22;8603;46.944;7.412;2022-08-18T03:00:16;16.10;99.90
16974;DHT22;8603;46.944;7.412;2022-08-18T03:02:56;16.10;99.90
16974;DHT22;8603;46.944;7.412;2022-08-18T03:05:22;16.10;99.90
16974;DHT22;8603;46.944;7.412;2022-08-18T03:07:47;16.10;99.90
16974;DHT22;8603;46.944;7.412;2022-08-18T03:10:17;16.10;99.90
16974;DHT22;8603;46.944;7.412;2022-08-18T03:12:46;16.10;99.90
16974;DHT22;8603;46.944;7.412;2022-08-18T03:15:14;16.00;99.90
16974;DHT22;8603;46.944;7.412;2022-08-18T03:17:43;16.00;99.90
16974;DHT22;8603;46.944;7.412;2022-08-18T03:20:46;16.00;99.90
16974;DHT22;8603;46.944;7.412;2022-08-18T03:23:32;16.00;99.90
16974;DHT22;8603;46.944;7.412;2022-08-18T03:25:58;16.00;99.90
16974;DHT22;8603;46.944;7.412;2022-08-18T03:28:31;16.00;99.90
16974;DHT22;8603;46.944;7.412;2022-08-18T03:31:08;16.00;99.90
16974;DHT22;8603;46.944;7.412;2022-08-18T03:33:40;16.00;99.90
16974;DHT22;8603;46.944;7.412;2022-08-18T03:36:22;16.00;99.90
16974;DHT22;8603;46.944;7.412;2022-08-18T03:38:49;16.10;99.90
16974;DHT22;8603;46.944;7.412;2022-08-18T03:41:21;16.10;99.90
16974;DHT22;8603;46.944;7.412;2022-08-18T03:43:48;16.10;99.90
16974;DHT22;8603;46.944;7.412;2022-08-18T03:46:15;16.10;99.90
16974;DHT22;8603;46.944;7.412;2022-08-18T03:48:42;16.10;99.90
16974;DHT22;8603;46.944;7.412;2022-08-18T03:51:13;16.00;99.90
16974;DHT22;8603;46.944;7.412;2022-08-18T03:53:39;16.10;99.90
16974;DHT22;8603;46.944;7.412;2022-08-18T03:56:10;16.20;99.90
16974;DHT22;8603;46.944;7.412;2022-08-18T03:58:43;16.20;99.90
16974;DHT22;8603;46.944;7.412;2022-08-18T04:01:14;16.20;99.90
16974;DHT22;8603;46.944;7.412;2022-08-18T04:03:44;16.20;99.90
16974;DHT22;8603;46.944;7.412;2022-08-18T04:06:18;16.20;99.90
16974;DHT22;8603;46.944;7.412;2022-08-18T04:08:45;16.20;99.90
16974;DHT22;8603;46.944;7.412;2022-08-18T04:11:12;16.20;99.90
16974;DHT22;8603;46.944;7.412;2022-08-18T04:13:40;16.20;99.90
16974;DHT22;8603;46.944;7.412;2022-08-18T04:16:06;16.10;99.90
16974;DHT22;8603;46.944;7.412;2022-08-18T04:18:32;16.10;99.90
16974;DHT22;8603;46.944;7.412;2022-08-18T04:21:07;16.10;99.90
16974;DHT22;8603;46.944;7.412;2022-08-18T04:23:34;16.10;99.90
16974;DHT22;8603;46.944;7.412;2022-08-18T04:26:01;16.10;99.90
16974;DHT22;8603;46.944;7.412;2022-08-18T04:28:28;16.10;99.90
16974;DHT22;8603;46.944;7.412;2022-08-18T04:30:54;16.10;99.90
16974;DHT22;8603;46.944;7.412;2022-08-18T04:33:25;16.20;99.90
16974;DHT22;8603;46.944;7.412;2022-08-18T04:35:51;16.10;99.90
16974;DHT22;8603;46.944;7.412;2022-08-18T04:38:17;16.20;99.90
16974;DHT22;8603;46.944;7.412;2022-08-18T04:40:43;16.20;99.90
16974;DHT22;8603;46.944;7.412;2022-08-18T04:43:08;16.20;99.90
16974;DHT22;8603;46.944;7.412;2022-08-18T04:45:40;16.20;99.90
16974;DHT22;8603;46.944;7.412;2022-08-18T04:48:06;16.20;99.90
16974;DHT22;8603;46.944;7.412;2022-08-18T04:50:31;16.10;99.90
16974;DHT22;8603;46.944;7.412;2022-08-18T04:52:57;16.20;99.90
16974;DHT22;8603;46.944;7.412;2022-08-18T04:55:52;16.20;99.90
16974;DHT22;8603;46.944;7.412;2022-08-18T04:58:22;16.10;99.90
16974;DHT22;8603;46.944;7.412;2022-08-18T05:00:57;16.20;99.90
16974;DHT22;8603;46.944;7.412;2022-08-18T05:03:23;16.20;99.90
16974;DHT22;8603;46.944;7.412;2022-08-18T05:05:55;16.20;99.90
16974;DHT22;8603;46.944;7.412;2022-08-18T05:08:23;16.20;99.90
16974;DHT22;8603;46.944;7.412;2022-08-18T05:10:53;16.20;99.90
16974;DHT22;8603;46.944;7.412;2022-08-18T05:13:19;16.20;99.90
16974;DHT22;8603;46.944;7.412;2022-08-18T05:15:44;16.20;99.90
16974;DHT22;8603;46.944;7.412;2022-08-18T05:18:10;16.10;99.90
16974;DHT22;8603;46.944;7.412;2022-08-18T05:20:37;16.20;99.90
16974;DHT22;8603;46.944;7.412;2022-08-18T05:23:07;16.20;99.90
16974;DHT22;8603;46.944;7.412;2022-08-18T05:25:33;16.30;99.90
16974;DHT22;8603;46.944;7.412;2022-08-18T05:27:59;16.30;99.90
16974;DHT22;8603;46.944;7.412;2022-08-18T05:30:24;16.40;99.90
16974;DHT22;8603;46.944;7.412;2022-08-18T05:32:50;16.50;99.90
16974;DHT22;8603;46.944;7.412;2022-08-18T05:35:41;16.70;99.90
16974;DHT22;8603;46.944;7.412;2022-08-18T05:41:36;16.80;99.90
16974;DHT22;8603;46.944;7.412;2022-08-18T05:44:03;17.00;99.90
16974;DHT22;8603;46.944;7.412;2022-08-18T05:46:51;17.00;99.90
16974;DHT22;8603;46.944;7.412;2022-08-18T05:49:17;17.10;99.90
16974;DHT22;8603;46.944;7.412;2022-08-18T05:52:00;17.10;99.90
16974;DHT22;8603;46.944;7.412;2022-08-18T05:54:38;17.30;99.90
16974;DHT22;8603;46.944;7.412;2022-08-18T05:57:24;17.30;99.90
16974;DHT22;8603;46.944;7.412;2022-08-18T05:59:53;17.40;99.90
16974;DHT22;8603;46.944;7.412;2022-08-18T06:02:55;17.40;99.90
16974;DHT22;8603;46.944;7.412;2022-08-18T06:05:30;17.50;99.90
16974;DHT22;8603;46.944;7.412;2022-08-18T06:08:01;17.70;99.90
16974;DHT22;8603;46.944;7.412;2022-08-18T06:10:28;17.90;99.90
16974;DHT22;8603;46.944;7.412;2022-08-18T06:12:57;18.10;99.90
16974;DHT22;8603;46.944;7.412;2022-08-18T06:18:05;18.50;99.90
16974;DHT22;8603;46.944;7.412;2022-08-18T06:29:18;18.70;99.90
16974;DHT22;8603;46.944;7.412;2022-08-18T06:37:29;18.50;99.90
16974;DHT22;8603;46.944;7.412;2022-08-18T06:39:57;18.60;99.90
16974;DHT22;8603;46.944;7.412;2022-08-18T06:42:25;18.60;99.90
16974;DHT22;8603;46.944;7.412;2022-08-18T06:45:00;18.60;99.90
16974;DHT22;8603;46.944;7.412;2022-08-18T06:47:52;18.90;99.90
16974;DHT22;8603;46.944;7.412;2022-08-18T06:53:02;19.40;99.90
16974;DHT22;8603;46.944;7.412;2022-08-18T06:58:07;20.00;99.90
16974;DHT22;8603;46.944;7.412;2022-08-18T07:01:04;20.20;99.90
16974;DHT22;8603;46.944;7.412;2022-08-18T07:03:44;20.60;99.90
16974;DHT22;8603;46.944;7.412;2022-08-18T07:08:50;21.60;99.90
16974;DHT22;8603;46.944;7.412;2022-08-18T07:13:43;22.70;99.90
16974;DHT22;8603;46.944;7.412;2022-08-18T07:16:17;23.20;99.90
16974;DHT22;8603;46.944;7.412;2022-08-18T07:18:44;23.70;99.90
16974;DHT22;8603;46.944;7.412;2022-08-18T07:21:27;24.00;99.90
16974;DHT22;8603;46.944;7.412;2022-08-18T07:23:59;24.20;99.90
16974;DHT22;8603;46.944;7.412;2022-08-18T07:26:25;24.10;99.90
16974;DHT22;8603;46.944;7.412;2022-08-18T07:28:52;24.00;99.90
16974;DHT22;8603;46.944;7.412;2022-08-18T07:34:03;23.40;99.90
16974;DHT22;8603;46.944;7.412;2022-08-18T07:36:39;23.10;99.90
16974;DHT22;8603;46.944;7.412;2022-08-18T07:39:18;22.90;99.90
16974;DHT22;8603;46.944;7.412;2022-08-18T07:41:51;22.60;99.90
16974;DHT22;8603;46.944;7.412;2022-08-18T07:44:26;22.30;99.90
16974;DHT22;8603;46.944;7.412;2022-08-18T07:46:57;22.10;99.90
16974;DHT22;8603;46.944;7.412;2022-08-18T07:49:28;22.00;99.90
16974;DHT22;8603;46.944;7.412;2022-08-18T07:52:06;22.00;99.90
16974;DHT22;8603;46.944;7.412;2022-08-18T08:00:22;21.90;99.90
16974;DHT22;8603;46.944;7.412;2022-08-18T08:02:59;21.80;99.90
16974;DHT22;8603;46.944;7.412;2022-08-18T08:08:45;21.60;99.90
16974;DHT22;8603;46.944;7.412;2022-08-18T08:14:05;21.50;99.90
16974;DHT22;8603;46.944;7.412;2022-08-18T08:16:42;21.60;99.90
16974;DHT22;8603;46.944;7.412;2022-08-18T08:22:04;21.80;99.90
16974;DHT22;8603;46.944;7.412;2022-08-18T08:24:43;21.90;99.90
16974;DHT22;8603;46.944;7.412;2022-08-18T08:32:40;22.20;99.90
16974;DHT22;8603;46.944;7.412;2022-08-18T08:35:15;22.20;99.90
16974;DHT22;8603;46.944;7.412;2022-08-18T08:37:55;22.30;99.90
16974;DHT22;8603;46.944;7.412;2022-08-18T08:40:26;22.30;99.90
16974;DHT22;8603;46.944;7.412;2022-08-18T08:45:25;22.70;99.90
16974;DHT22;8603;46.944;7.412;2022-08-18T08:48:08;23.00;99.90
16974;DHT22;8603;46.944;7.412;2022-08-18T08:51:09;23.50;99.90
16974;DHT22;8603;46.944;7.412;2022-08-18T08:54:20;24.10;99.90
16974;DHT22;8603;46.944;7.412;2022-08-18T08:56:49;24.80;99.90
16974;DHT22;8603;46.944;7.412;2022-08-18T08:59:18;24.90;99.90
16974;DHT22;8603;46.944;7.412;2022-08-18T09:02:03;25.00;99.90
16974;DHT22;8603;46.944;7.412;2022-08-18T09:04:54;25.10;99.90
16974;DHT22;8603;46.944;7.412;2022-08-18T09:12:47;24.90;99.90
16974;DHT22;8603;46.944;7.412;2022-08-18T09:15:23;24.70;99.90
16974;DHT22;8603;46.944;7.412;2022-08-18T09:18:10;24.60;99.90
16974;DHT22;8603;46.944;7.412;2022-08-18T09:21:02;24.50;99.90
16974;DHT22;8603;46.944;7.412;2022-08-18T09:23:52;24.40;99.90
16974;DHT22;8603;46.944;7.412;2022-08-18T09:26:53;24.20;99.90
16974;DHT22;8603;46.944;7.412;2022-08-18T09:29:54;24.00;99.90
16974;DHT22;8603;46.944;7.412;2022-08-18T09:32:46;23.90;99.90
16974;DHT22;8603;46.944;7.412;2022-08-18T09:42:38;23.90;99.90
16974;DHT22;8603;46.944;7.412;2022-08-18T09:48:45;23.70;99.90
16974;DHT22;8603;46.944;7.412;2022-08-18T09:51:41;23.50;99.90
16974;DHT22;8603;46.944;7.412;2022-08-18T09:54:15;23.30;99.90
16974;DHT22;8603;46.944;7.412;2022-08-18T10:37:32;23.20;99.90
16974;DHT22;8603;46.944;7.412;2022-08-18T10:43:21;23.30;99.90
16974;DHT22;8603;46.944;7.412;2022-08-18T10:45:51;23.50;99.90
16974;DHT22;8603;46.944;7.412;2022-08-18T10:48:30;23.60;99.90
16974;DHT22;8603;46.944;7.412;2022-08-18T10:51:27;23.60;99.90
16974;DHT22;8603;46.944;7.412;2022-08-18T10:54:11;23.60;99.90
16974;DHT22;8603;46.944;7.412;2022-08-18T10:56:51;23.50;99.90
16974;DHT22;8603;46.944;7.412;2022-08-18T11:02:16;23.30;99.90
16974;DHT22;8603;46.944;7.412;2022-08-18T11:04:48;23.30;99.90
16974;DHT22;8603;46.944;7.412;2022-08-18T11:07:27;23.30;99.90
16974;DHT22;8603;46.944;7.412;2022-08-18T11:09:56;23.40;99.90
16974;DHT22;8603;46.944;7.412;2022-08-18T11:27:29;23.30;99.90
16974;DHT22;8603;46.944;7.412;2022-08-18T11:29:40;23.30;99.90
16974;DHT22;8603;46.944;7.412;2022-08-18T11:35:14;23.20;99.90
16974;DHT22;8603;46.944;7.412;2022-08-18T11:48:15;23.20;99.90
16974;DHT22;8603;46.944;7.412;2022-08-18T11:51:18;23.10;99.90
16974;DHT22;8603;46.944;7.412;2022-08-18T11:56:36;23.20;99.90
16974;DHT22;8603;46.944;7.412;2022-08-18T12:02:02;23.30;99.90
16974;DHT22;8603;46.944;7.412;2022-08-18T12:07:15;23.30;99.90
16974;DHT22;8603;46.944;7.412;2022-08-18T12:13:24;23.40;99.90
16974;DHT22;8603;46.944;7.412;2022-08-18T12:19:51;23.30;99.90
16974;DHT22;8603;46.944;7.412;2022-08-18T12:22:37;23.30;99.90
16974;DHT22;8603;46.944;7.412;2022-08-18T12:25:31;23.30;99.90
16974;DHT22;8603;46.944;7.412;2022-08-18T12:33:36;23.40;99.90
16974;DHT22;8603;46.944;7.412;2022-08-18T12:46:55;23.60;99.90
16974;DHT22;8603;46.944;7.412;2022-08-18T12:49:23;23.70;99.90
16974;DHT22;8603;46.944;7.412;2022-08-18T12:51:49;23.80;99.90
16974;DHT22;8603;46.944;7.412;2022-08-18T12:54:18;23.90;99.90
16974;DHT22;8603;46.944;7.412;2022-08-18T12:56:47;23.90;99.90
16974;DHT22;8603;46.944;7.412;2022-08-18T12:59:29;24.00;99.90
16974;DHT22;8603;46.944;7.412;2022-08-18T13:02:01;24.00;99.90
16974;DHT22;8603;46.944;7.412;2022-08-18T13:04:27;24.10;99.90
16974;DHT22;8603;46.944;7.412;2022-08-18T13:06:55;24.20;99.90
16974;DHT22;8603;46.944;7.412;2022-08-18T13:09:22;24.20;99.90
16974;DHT22;8603;46.944;7.412;2022-08-18T13:11:48;24.30;99.90
16974;DHT22;8603;46.944;7.412;2022-08-18T13:14:13;24.30;99.90
16974;DHT22;8603;46.944;7.412;2022-08-18T13:16:41;24.30;99.90
16974;DHT22;8603;46.944;7.412;2022-08-18T13:19:09;24.30;99.90
16974;DHT22;8603;46.944;7.412;2022-08-18T13:21:35;24.30;99.90
16974;DHT22;8603;46.944;7.412;2022-08-18T13:24:02;24.30;99.90
16974;DHT22;8603;46.944;7.412;2022-08-18T13:26:31;24.30;99.90
16974;DHT22;8603;46.944;7.412;2022-08-18T13:29:03;24.30;99.90
16974;DHT22;8603;46.944;7.412;2022-08-18T13:31:31;24.30;99.90
16974;DHT22;8603;46.944;7.412;2022-08-18T13:33:57;24.30;99.90
16974;DHT22;8603;46.944;7.412;2022-08-18T13:36:26;24.30;99.90
16974;DHT22;8603;46.944;7.412;2022-08-18T13:38:52;24.30;99.90
16974;DHT22;8603;46.944;7.412;2022-08-18T13:41:21;24.20;99.90
16974;DHT22;8603;46.944;7.412;2022-08-18T13:43:48;24.10;99.90
16974;DHT22;8603;46.944;7.412;2022-08-18T13:46:17;24.10;99.90
16974;DHT22;8603;46.944;7.412;2022-08-18T13:48:43;24.00;99.90
16974;DHT22;8603;46.944;7.412;2022-08-18T13:51:17;24.10;99.90
16974;DHT22;8603;46.944;7.412;2022-08-18T13:53:44;24.10;99.90
16974;DHT22;8603;46.944;7.412;2022-08-18T13:56:12;24.10;99.90
16974;DHT22;8603;46.944;7.412;2022-08-18T13:58:38;24.10;99.90
16974;DHT22;8603;46.944;7.412;2022-08-18T14:01:06;24.20;99.90
16974;DHT22;8603;46.944;7.412;2022-08-18T14:03:32;24.20;99.90
16974;DHT22;8603;46.944;7.412;2022-08-18T14:06:00;24.20;99.90
16974;DHT22;8603;46.944;7.412;2022-08-18T14:08:27;24.10;99.90
16974;DHT22;8603;46.944;7.412;2022-08-18T14:11:12;24.10;99.90
16974;DHT22;8603;46.944;7.412;2022-08-18T14:13:37;24.10;99.90
16974;DHT22;8603;46.944;7.412;2022-08-18T14:16:03;24.10;99.90
16974;DHT22;8603;46.944;7.412;2022-08-18T14:18:28;24.10;99.90
16974;DHT22;8603;46.944;7.412;2022-08-18T14:20:55;24.10;99.90
16974;DHT22;8603;46.944;7.412;2022-08-18T14:23:39;24.10;99.90
16974;DHT22;8603;46.944;7.412;2022-08-18T14:26:23;24.00;99.90
16974;DHT22;8603;46.944;7.412;2022-08-18T14:29:07;24.00;99.90
16974;DHT22;8603;46.944;7.412;2022-08-18T14:31:33;24.00;99.90
16974;DHT22;8603;46.944;7.412;2022-08-18T14:33:59;24.00;99.90
16974;DHT22;8603;46.944;7.412;2022-08-18T14:36:25;23.90;99.90
16974;DHT22;8603;46.944;7.412;2022-08-18T14:38:51;23.90;99.90
16974;DHT22;8603;46.944;7.412;2022-08-18T14:41:16;23.90;99.90
16974;DHT22;8603;46.944;7.412;2022-08-18T14:43:42;23.90;99.90
16974;DHT22;8603;46.944;7.412;2022-08-18T14:46:10;23.80;99.90
16974;DHT22;8603;46.944;7.412;2022-08-18T14:48:36;23.80;99.90
16974;DHT22;8603;46.944;7.412;2022-08-18T14:51:02;23.80;99.90
16974;DHT22;8603;46.944;7.412;2022-08-18T14:53:30;23.80;99.90
16974;DHT22;8603;46.944;7.412;2022-08-18T14:55:58;23.80;99.90
16974;DHT22;8603;46.944;7.412;2022-08-18T14:58:29;23.70;99.90
16974;DHT22;8603;46.944;7.412;2022-08-18T15:00:57;23.70;99.90
16974;DHT22;8603;46.944;7.412;2022-08-18T15:03:26;23.60;99.90
16974;DHT22;8603;46.944;7.412;2022-08-18T15:05:52;23.60;99.90
16974;DHT22;8603;46.944;7.412;2022-08-18T15:08:19;23.50;99.90
16974;DHT22;8603;46.944;7.412;2022-08-18T15:10:45;23.50;99.90
16974;DHT22;8603;46.944;7.412;2022-08-18T15:13:11;23.50;99.90
16974;DHT22;8603;46.944;7.412;2022-08-18T15:15:37;23.50;99.90
16974;DHT22;8603;46.944;7.412;2022-08-18T15:18:03;23.50;99.90
16974;DHT22;8603;46.944;7.412;2022-08-18T15:20:29;23.40;99.90
16974;DHT22;8603;46.944;7.412;2022-08-18T15:23:02;23.40;99.90
16974;DHT22;8603;46.944;7.412;2022-08-18T15:25:48;23.40;99.90
16974;DHT22;8603;46.944;7.412;2022-08-18T15:28:18;23.40;99.90
16974;DHT22;8603;46.944;7.412;2022-08-18T15:30:46;23.30;99.90
16974;DHT22;8603;46.944;7.412;2022-08-18T15:33:12;23.30;99.90
16974;DHT22;8603;46.944;7.412;2022-08-18T15:35:40;23.30;99.90
16974;DHT22;8603;46.944;7.412;2022-08-18T15:38:06;23.30;99.90
16974;DHT22;8603;46.944;7.412;2022-08-18T15:40:32;23.20;99.90
16974;DHT22;8603;46.944;7.412;2022-08-18T15:43:05;23.20;99.90
16974;DHT22;8603;46.944;7.412;2022-08-18T15:45:35;23.10;99.90
16974;DHT22;8603;46.944;7.412;2022-08-18T15:48:03;23.10;99.90
16974;DHT22;8603;46.944;7.412;2022-08-18T15:50:29;23.00;99.90
16974;DHT22;8603;46.944;7.412;2022-08-18T15:53:00;22.90;99.90
16974;DHT22;8603;46.944;7.412;2022-08-18T15:55:29;22.80;99.90
16974;DHT22;8603;46.944;7.412;2022-08-18T15:57:55;22.70;99.90
16974;DHT22;8603;46.944;7.412;2022-08-18T16:00:22;22.60;99.90
16974;DHT22;8603;46.944;7.412;2022-08-18T16:02:53;22.60;99.90
16974;DHT22;8603;46.944;7.412;2022-08-18T16:05:23;22.40;99.90
16974;DHT22;8603;46.944;7.412;2022-08-18T16:07:50;22.30;99.90
16974;DHT22;8603;46.944;7.412;2022-08-18T16:10:19;22.20;99.90
16974;DHT22;8603;46.944;7.412;2022-08-18T16:12:45;22.10;99.90
16974;DHT22;8603;46.944;7.412;2022-08-18T16:15:13;22.10;99.90
16974;DHT22;8603;46.944;7.412;2022-08-18T16:17:39;22.00;99.90
16974;DHT22;8603;46.944;7.412;2022-08-18T16:20:08;21.80;99.90
16974;DHT22;8603;46.944;7.412;2022-08-18T16:22:40;21.80;99.90
16974;DHT22;8603;46.944;7.412;2022-08-18T16:25:07;21.80;99.90
16974;DHT22;8603;46.944;7.412;2022-08-18T16:27:34;21.70;99.90
16974;DHT22;8603;46.944;7.412;2022-08-18T16:30:18;21.70;99.90
16974;DHT22;8603;46.944;7.412;2022-08-18T16:32:47;21.70;99.90
16974;DHT22;8603;46.944;7.412;2022-08-18T16:35:14;21.70;99.90
16974;DHT22;8603;46.944;7.412;2022-08-18T16:37:40;21.60;99.90
16974;DHT22;8603;46.944;7.412;2022-08-18T16:40:06;21.60;99.90
16974;DHT22;8603;46.944;7.412;2022-08-18T16:42:35;21.50;99.90
16974;DHT22;8603;46.944;7.412;2022-08-18T16:45:02;21.50;99.90
16974;DHT22;8603;46.944;7.412;2022-08-18T16:47:31;21.40;99.90
16974;DHT22;8603;46.944;7.412;2022-08-18T16:49:58;21.30;99.90
16974;DHT22;8603;46.944;7.412;2022-08-18T16:52:24;21.30;99.90
16974;DHT22;8603;46.944;7.412;2022-08-18T16:54:49;21.10;99.90
16974;DHT22;8603;46.944;7.412;2022-08-18T16:57:15;21.00;99.90
16974;DHT22;8603;46.944;7.412;2022-08-18T17:00:05;20.80;99.90
16974;DHT22;8603;46.944;7.412;2022-08-18T17:02:50;20.70;99.90
16974;DHT22;8603;46.944;7.412;2022-08-18T17:05:34;20.60;99.90
16974;DHT22;8603;46.944;7.412;2022-08-18T17:08:00;20.50;99.90
16974;DHT22;8603;46.944;7.412;2022-08-18T17:10:25;20.40;99.90
16974;DHT22;8603;46.944;7.412;2022-08-18T17:12:51;20.30;99.90
16974;DHT22;8603;46.944;7.412;2022-08-18T17:15:17;20.30;99.90
16974;DHT22;8603;46.944;7.412;2022-08-18T17:17:42;20.20;99.90
16974;DHT22;8603;46.944;7.412;2022-08-18T17:20:08;20.00;99.90
16974;DHT22;8603;46.944;7.412;2022-08-18T17:22:34;19.90;99.90
16974;DHT22;8603;46.944;7.412;2022-08-18T17:25:00;19.90;99.90
16974;DHT22;8603;46.944;7.412;2022-08-18T17:27:32;19.80;99.90
16974;DHT22;8603;46.944;7.412;2022-08-18T17:30:04;19.70;99.90
16974;DHT22;8603;46.944;7.412;2022-08-18T17:32:48;19.50;99.90
16974;DHT22;8603;46.944;7.412;2022-08-18T17:35:41;19.50;99.90
16974;DHT22;8603;46.944;7.412;2022-08-18T17:38:28;19.40;99.90
16974;DHT22;8603;46.944;7.412;2022-08-18T17:41:18;19.30;99.90
16974;DHT22;8603;46.944;7.412;2022-08-18T17:43:54;19.30;99.90
16974;DHT22;8603;46.944;7.412;2022-08-18T17:46:29;19.20;99.90
16974;DHT22;8603;46.944;7.412;2022-08-18T17:49:30;19.20;99.90
16974;DHT22;8603;46.944;7.412;2022-08-18T18:29:29;18.80;99.90
16974;DHT22;8603;46.944;7.412;2022-08-18T18:32:21;18.70;99.90
16974;DHT22;8603;46.944;7.412;2022-08-18T18:38:36;18.70;99.90
16974;DHT22;8603;46.944;7.412;2022-08-18T18:45:03;18.70;99.90
16974;DHT22;8603;46.944;7.412;2022-08-18T18:47:59;18.70;99.90
16974;DHT22;8603;46.944;7.412;2022-08-18T18:50:45;18.70;99.90
16974;DHT22;8603;46.944;7.412;2022-08-18T18:53:51;18.70;99.90
16974;DHT22;8603;46.944;7.412;2022-08-18T18:57:02;18.70;99.90
16974;DHT22;8603;46.944;7.412;2022-08-18T19:15:07;18.80;99.90
16974;DHT22;8603;46.944;7.412;2022-08-18T19:18:17;18.80;99.90
16974;DHT22;8603;46.944;7.412;2022-08-18T19:20:59;18.80;99.90
16974;DHT22;8603;46.944;7.412;2022-08-18T19:27:32;18.80;99.90
16974;DHT22;8603;46.944;7.412;2022-08-18T19:30:13;18.90;99.90
16974;DHT22;8603;46.944;7.412;2022-08-18T19:32:52;18.80;99.90
16974;DHT22;8603;46.944;7.412;2022-08-18T19:39:02;18.80;99.90
16974;DHT22;8603;46.944;7.412;2022-08-18T19:41:49;18.80;99.90
16974;DHT22;8603;46.944;7.412;2022-08-18T19:47:17;18.80;99.90
16974;DHT22;8603;46.944;7.412;2022-08-18T19:52:54;18.70;99.90
16974;DHT22;8603;46.944;7.412;2022-08-18T19:58:07;18.70;99.90
16974;DHT22;8603;46.944;7.412;2022-08-18T20:06:47;18.70;99.90
16974;DHT22;8603;46.944;7.412;2022-08-18T20:09:33;18.70;99.90
16974;DHT22;8603;46.944;7.412;2022-08-18T20:15:06;18.70;99.90
16974;DHT22;8603;46.944;7.412;2022-08-18T20:17:32;18.70;99.90
16974;DHT22;8603;46.944;7.412;2022-08-18T20:20:14;18.70;99.90
16974;DHT22;8603;46.944;7.412;2022-08-18T20:22:45;18.70;99.90
16974;DHT22;8603;46.944;7.412;2022-08-18T20:27:43;18.60;99.90
16974;DHT22;8603;46.944;7.412;2022-08-18T20:30:21;18.60;99.90
16974;DHT22;8603;46.944;7.412;2022-08-18T20:36:10;18.50;99.90
16974;DHT22;8603;46.944;7.412;2022-08-18T20:38:44;18.60;99.90
16974;DHT22;8603;46.944;7.412;2022-08-18T20:41:32;18.50;99.90
16974;DHT22;8603;46.944;7.412;2022-08-18T20:47:18;18.50;99.90
16974;DHT22;8603;46.944;7.412;2022-08-18T20:52:47;18.50;99.90
16974;DHT22;8603;46.944;7.412;2022-08-18T20:58:14;18.50;99.90
16974;DHT22;8603;46.944;7.412;2022-08-18T21:00:44;18.40;99.90
16974;DHT22;8603;46.944;7.412;2022-08-18T21:03:13;18.40;99.90
16974;DHT22;8603;46.944;7.412;2022-08-18T21:05:43;18.40;99.90
16974;DHT22;8603;46.944;7.412;2022-08-18T21:10:55;18.40;99.90